| time (UTC) | temp F | wind direction | speed MPH | gust MPH | rain 1hr in | rain 24hr in | rain mn in | humidity % | barometer mb |
| 20260509053326 | 37 | 72 | 0.0 | 0.0 | 0.00 | 0.03 | 0.00 | 86 | 1014.5 |
| 20260509051812 | 38 | 70 | 0.0 | 0.0 | 0.00 | 0.03 | 0.00 | 85 | 1014.7 |
| 20260509050326 | 37 | 71 | 0.0 | 0.0 | 0.00 | 0.03 | 0.00 | 85 | 1014.9 |
| 20260509044833 | 38 | 71 | 0.0 | 0.0 | 0.00 | 0.03 | 0.00 | 85 | 1015.0 |
| 20260509043327 | 38 | 70 | 0.0 | 0.0 | 0.00 | 0.03 | 0.00 | 85 | 1015.0 |
| 20260509041821 | 39 | 70 | 0.0 | 0.0 | 0.00 | 0.03 | 0.00 | 83 | 1015.1 |
| 20260509040328 | 39 | 72 | 0.0 | 0.0 | 0.00 | 0.03 | 0.00 | 83 | 1015.3 |
| 20260509034819 | 39 | 72 | 0.0 | 0.0 | 0.00 | 0.03 | 0.03 | 81 | 1015.2 |
| 20260509033356 | 39 | 72 | 0.0 | 0.0 | 0.00 | 0.03 | 0.03 | 82 | 1015.1 |
| 20260509031823 | 40 | 72 | 0.0 | 0.0 | 0.00 | 0.03 | 0.03 | 81 | 1015.2 |
| 20260509030312 | 39 | 105 | 0.0 | 0.0 | 0.00 | 0.03 | 0.03 | 80 | 1015.3 |
| 20260509024824 | 40 | 87 | 0.0 | 0.0 | 0.00 | 0.03 | 0.03 | 74 | 1015.2 |
| 20260509023339 | 40 | 91 | 0.0 | 0.0 | 0.00 | 0.03 | 0.03 | 81 | 1015.3 |
| 20260509021830 | 41 | 71 | 0.0 | 0.0 | 0.00 | 0.03 | 0.03 | 77 | 1015.2 |
| 20260509020318 | 41 | 71 | 0.0 | 0.0 | 0.00 | 0.03 | 0.03 | 80 | 1015.3 |
| 20260509014833 | 42 | 71 | 0.0 | 1.0 | 0.00 | 0.03 | 0.03 | 73 | 1015.3 |
| 20260509013350 | 43 | 71 | 2.0 | 2.0 | 0.00 | 0.03 | 0.03 | 75 | 1015.3 |
| 20260509011830 | 44 | 77 | 0.0 | 1.0 | 0.00 | 0.03 | 0.03 | 64 | 1015.1 |
| 20260509010323 | 46 | 46 | 2.0 | 2.0 | 0.00 | 0.03 | 0.03 | 63 | 1014.9 |
| 20260509004829 | 47 | 40 | 1.0 | 1.0 | 0.00 | 0.03 | 0.03 | 57 | 1014.7 |
| 20260509003322 | 50 | 25 | 0.0 | 1.0 | 0.00 | 0.03 | 0.03 | 53 | 1014.5 |
| 20260509001828 | 52 | 314 | 0.0 | 0.0 | 0.00 | 0.03 | 0.03 | 43 | 1014.4 |
| 20260509000321 | 54 | 314 | 0.0 | 2.0 | 0.00 | 0.03 | 0.03 | 41 | 1014.4 |
| 20260508234827 | 55 | 297 | 1.0 | 5.0 | 0.00 | 0.03 | 0.03 | 39 | 1014.3 |
| 20260508233325 | 55 | 277 | 2.0 | 7.0 | 0.00 | 0.03 | 0.03 | 37 | 1014.2 |
| 20260508231836 | 55 | 316 | 5.0 | 7.0 | 0.00 | 0.03 | 0.03 | 38 | 1014.1 |
| 20260508230345 | 56 | 287 | 5.0 | 9.0 | 0.00 | 0.03 | 0.03 | 36 | 1014.1 |
| 20260508224816 | 57 | 293 | 6.0 | 10.0 | 0.00 | 0.03 | 0.03 | 39 | 1014.0 |
| 20260508223326 | 57 | 315 | 1.0 | 5.0 | 0.00 | 0.03 | 0.03 | 44 | 1014.1 |
| 20260508221818 | 58 | 256 | 0.0 | 5.0 | 0.00 | 0.03 | 0.03 | 41 | 1014.0 |
| 20260508220333 | 57 | 273 | 4.0 | 7.0 | 0.00 | 0.03 | 0.03 | 41 | 1014.1 |
| 20260508214819 | 57 | 293 | 1.0 | 7.0 | 0.00 | 0.03 | 0.03 | 44 | 1014.1 |
| 20260508213353 | 57 | 310 | 6.0 | 9.0 | 0.00 | 0.03 | 0.03 | 46 | 1014.1 |
| 20260508211817 | 57 | 306 | 1.0 | 3.0 | 0.00 | 0.03 | 0.03 | 47 | 1014.2 |
| 20260508210314 | 56 | 315 | 3.0 | 9.0 | 0.00 | 0.03 | 0.03 | 48 | 1014.3 |
| 20260508204847 | 56 | 314 | 7.0 | 10.0 | 0.00 | 0.03 | 0.03 | 46 | 1014.4 |
| 20260508203315 | 56 | 292 | 6.0 | 10.0 | 0.00 | 0.03 | 0.03 | 47 | 1014.5 |
| 20260508201826 | 55 | 321 | 2.0 | 6.0 | 0.00 | 0.03 | 0.03 | 48 | 1014.7 |
| 20260508200313 | 56 | 326 | 3.0 | 6.0 | 0.00 | 0.03 | 0.03 | 47 | 1015.0 |
| 20260508194823 | 55 | 271 | 1.0 | 4.0 | 0.00 | 0.03 | 0.03 | 51 | 1015.2 |
| 20260508193336 | 53 | 302 | 2.0 | 8.0 | 0.00 | 0.03 | 0.03 | 54 | 1015.4 |
| 20260508191822 | 54 | 336 | 4.0 | 9.0 | 0.00 | 0.03 | 0.03 | 54 | 1015.7 |
| 20260508184831 | 53 | 311 | 4.0 | 5.0 | 0.00 | 0.03 | 0.03 | 60 | 1015.8 |
| 20260508183323 | 53 | 255 | 2.0 | 5.0 | 0.00 | 0.03 | 0.03 | 64 | 1015.9 |
| 20260508181855 | 52 | 278 | 3.0 | 8.0 | 0.00 | 0.03 | 0.03 | 60 | 1016.0 |
| 20260508180345 | 52 | 232 | 4.0 | 8.0 | 0.00 | 0.03 | 0.03 | 61 | 1016.1 |
| 20260508174815 | 52 | 287 | 4.0 | 9.0 | 0.00 | 0.03 | 0.03 | 59 | 1016.2 |
| 20260508173325 | 52 | 212 | 5.0 | 10.0 | 0.00 | 0.03 | 0.03 | 64 | 1016.4 |
| 20260508171837 | 51 | 264 | 6.0 | 9.0 | 0.00 | 0.03 | 0.03 | 67 | 1016.6 |
| 20260508170327 | 49 | 231 | 3.0 | 6.0 | 0.00 | 0.03 | 0.03 | 71 | 1016.7 |
| 20260508164814 | 49 | 243 | 3.0 | 9.0 | 0.00 | 0.03 | 0.03 | 76 | 1016.8 |
| 20260508163328 | 49 | 242 | 5.0 | 8.0 | 0.00 | 0.03 | 0.03 | 78 | 1016.8 |
| 20260508161819 | 48 | 204 | 4.0 | 7.0 | 0.00 | 0.03 | 0.03 | 76 | 1017.2 |
| 20260508160335 | 47 | 167 | 3.0 | 8.0 | 0.00 | 0.03 | 0.03 | 80 | 1017.3 |
| 20260508154825 | 46 | 207 | 3.0 | 6.0 | 0.00 | 0.03 | 0.03 | 80 | 1017.3 |
| 20260508153312 | 46 | 166 | 4.0 | 6.0 | 0.00 | 0.03 | 0.03 | 83 | 1017.3 |
| 20260508151824 | 44 | 246 | 4.0 | 7.0 | 0.00 | 0.03 | 0.03 | 83 | 1017.3 |
| 20260508150312 | 43 | 218 | 3.0 | 5.0 | 0.00 | 0.03 | 0.03 | 86 | 1017.3 |
| 20260508144822 | 42 | 226 | 2.0 | 4.0 | 0.00 | 0.03 | 0.03 | 86 | 1017.3 |
| 20260508143337 | 43 | 226 | 1.0 | 2.0 | 0.00 | 0.03 | 0.03 | 84 | 1017.3 |
| 20260508141822 | 42 | 263 | 0.0 | 3.0 | 0.01 | 0.03 | 0.03 | 85 | 1017.2 |
| 20260508140320 | 42 | 302 | 1.0 | 4.0 | 0.01 | 0.03 | 0.03 | 87 | 1017.0 |
| 20260508134827 | 41 | 215 | 1.0 | 3.0 | 0.01 | 0.03 | 0.03 | 89 | 1016.7 |
| 20260508133319 | 41 | 218 | 1.0 | 3.0 | 0.02 | 0.03 | 0.03 | 90 | 1017.1 |
| 20260508131826 | 40 | 322 | 2.0 | 4.0 | 0.02 | 0.02 | 0.02 | 90 | 1017.3 |
| 20260508130340 | 40 | 264 | 3.0 | 7.0 | 0.02 | 0.02 | 0.02 | 91 | 1017.3 |
| 20260508124828 | 40 | 270 | 1.0 | 3.0 | 0.02 | 0.02 | 0.02 | 90 | 1017.2 |
| 20260508123344 | 40 | 299 | 2.0 | 9.0 | 0.01 | 0.01 | 0.01 | 88 | 1017.2 |
| 20260508121855 | 41 | 322 | 6.0 | 12.0 | 0.00 | 0.00 | 0.00 | 87 | 1017.0 |
| 20260508120322 | 42 | 277 | 3.0 | 6.0 | 0.00 | 0.00 | 0.00 | 86 | 1016.5 |
| 20260508114832 | 42 | 278 | 2.0 | 5.0 | 0.00 | 0.00 | 0.00 | 86 | 1016.2 |
| 20260508113321 | 42 | 191 | 3.0 | 6.0 | 0.00 | 0.00 | 0.00 | 84 | 1016.0 |
| 20260508111836 | 42 | 245 | 3.0 | 5.0 | 0.00 | 0.00 | 0.00 | 83 | 1015.8 |
| 20260508110328 | 42 | 240 | 1.0 | 5.0 | 0.00 | 0.00 | 0.00 | 85 | 1015.5 |
| 20260508104811 | 42 | 177 | 1.0 | 6.0 | 0.00 | 0.00 | 0.00 | 87 | 1015.2 |
| 20260508103344 | 42 | 172 | 2.0 | 4.0 | 0.00 | 0.00 | 0.00 | 88 | 1015.5 |
| 20260508101834 | 42 | 210 | 0.0 | 3.0 | 0.00 | 0.00 | 0.00 | 88 | 1015.3 |
| 20260508100321 | 42 | 132 | 1.0 | 2.0 | 0.00 | 0.00 | 0.00 | 88 | 1015.3 |
| 20260508094834 | 42 | 236 | 1.0 | 3.0 | 0.00 | 0.00 | 0.00 | 88 | 1015.7 |
| 20260508093321 | 42 | 231 | 0.0 | 5.0 | 0.00 | 0.00 | 0.00 | 89 | 1015.8 |
| 20260508091831 | 42 | 250 | 2.0 | 5.0 | 0.00 | 0.00 | 0.00 | 90 | 1015.9 |
| 20260508090319 | 42 | 210 | 4.0 | 7.0 | 0.00 | 0.00 | 0.00 | 90 | 1015.9 |
| 20260508084812 | 41 | 224 | 2.0 | 5.0 | 0.00 | 0.00 | 0.00 | 91 | 1015.9 |
| 20260508083321 | 40 | 221 | 1.0 | 3.0 | 0.00 | 0.00 | 0.00 | 91 | 1015.8 |
| 20260508081813 | 40 | 203 | 0.0 | 0.0 | 0.00 | 0.00 | 0.00 | 90 | 1015.8 |
| 20260508080321 | 39 | 203 | 0.0 | 1.0 | 0.00 | 0.00 | 0.00 | 89 | 1015.6 |
| 20260508074815 | 39 | 203 | 0.0 | 2.0 | 0.00 | 0.00 | 0.00 | 90 | 1015.6 |
| 20260508073330 | 39 | 159 | 0.0 | 1.0 | 0.00 | 0.00 | 0.00 | 90 | 1015.7 |
| 20260508071816 | 38 | 146 | 0.0 | 0.0 | 0.00 | 0.00 | 0.00 | 90 | 1015.7 |
| 20260508070331 | 38 | 146 | 0.0 | 2.0 | 0.00 | 0.00 | 0.00 | 90 | 1015.8 |
| 20260508064821 | 38 | 228 | 0.0 | 0.0 | 0.00 | 0.00 | 0.00 | 91 | 1016.0 |
| 20260508063334 | 37 | 277 | 0.0 | 0.0 | 0.00 | 0.00 | 0.00 | 91 | 1015.8 |
| 20260508061819 | 39 | 277 | 0.0 | 0.0 | 0.00 | 0.00 | 0.00 | 91 | 1015.9 |
| 20260508060333 | 39 | 277 | 0.0 | 0.0 | 0.00 | 0.00 | 0.00 | 90 | 1016.0 |
| 20260508054820 | 40 | 277 | 0.0 | 0.0 | 0.00 | 0.00 | 0.00 | 89 | 1016.2 |